Time;durP1;ratioP1;P1;durP2;ratioP2;P2;SDS_P1;SDS_P2;PMS_P1;PMS_P2;Temp;Humidity;BMP_temperature;BMP_pressure;BME280_temperature;BME280_humidity;BME280_pressure;Samples;Min_cycle;Max_cycle;Signal;HPM_P1;HPM_P2
2023/06/09 00:01:15;;;;;;;9.63;5.63;;;18.50;77.40;;;;;;5076930;28;20052;-92
2023/06/09 00:03:45;;;;;;;10.23;6.10;;;18.50;77.30;;;;;;5084635;28;20044;-93
2023/06/09 00:06:16;;;;;;;10.65;5.72;;;18.60;77.20;;;;;;5077447;28;20052;-92
2023/06/09 00:08:43;;;;;;;10.85;5.72;;;18.50;77.60;;;;;;5094694;28;20044;-92
2023/06/09 00:11:10;;;;;;;9.95;5.57;;;18.50;77.30;;;;;;5110958;28;20554;-92
2023/06/09 00:13:38;;;;;;;10.27;5.90;;;18.60;77.40;;;;;;5094359;28;20036;-92
2023/06/09 00:16:05;;;;;;;10.88;5.78;;;18.60;77.20;;;;;;5094477;28;20039;-92
2023/06/09 00:18:32;;;;;;;10.63;5.10;;;18.60;76.80;;;;;;5094192;28;20063;-92
2023/06/09 00:20:59;;;;;;;11.00;6.13;;;18.60;76.90;;;;;;5079175;28;20070;-92
2023/06/09 00:23:28;;;;;;;10.10;5.45;;;18.60;76.80;;;;;;5094114;28;20516;-92
2023/06/09 00:25:55;;;;;;;11.27;5.83;;;18.60;76.70;;;;;;5088063;28;20064;-92
2023/06/09 00:28:22;;;;;;;11.95;5.80;;;18.70;76.60;;;;;;5077087;28;20443;-92
2023/06/09 00:30:50;;;;;;;10.25;5.70;;;18.70;76.50;;;;;;5094104;28;20138;-92
2023/06/09 00:33:18;;;;;;;10.55;5.13;;;18.60;76.70;;;;;;5077146;28;20067;-92
2023/06/09 00:35:45;;;;;;;9.88;5.68;;;18.70;76.50;;;;;;5079980;28;20104;-92
2023/06/09 00:38:13;;;;;;;9.20;4.83;;;18.70;76.40;;;;;;5077761;28;20489;-92
2023/06/09 00:40:40;;;;;;;8.90;5.45;;;18.80;76.30;;;;;;5076787;28;20048;-92
2023/06/09 00:43:08;;;;;;;9.70;5.75;;;18.70;76.90;;;;;;5093771;28;20047;-92
2023/06/09 00:45:35;;;;;;;9.52;5.53;;;18.60;76.80;;;;;;5077356;28;20459;-92
2023/06/09 00:48:03;;;;;;;8.90;5.18;;;18.70;76.80;;;;;;5077419;28;20047;-93
2023/06/09 00:50:30;;;;;;;12.57;5.97;;;18.60;77.00;;;;;;5077329;28;20048;-91
2023/06/09 00:52:59;;;;;;;9.38;5.15;;;18.60;77.00;;;;;;5093574;28;20048;-92
2023/06/09 00:55:26;;;;;;;10.90;6.22;;;18.70;76.80;;;;;;5093779;28;20127;-92
2023/06/09 00:57:58;;;;;;;9.82;5.18;;;18.60;76.80;;;;;;5075088;28;20083;-92
2023/06/09 01:00:29;;;;;;;11.98;5.93;;;18.60;76.70;;;;;;5106359;28;20052;-93
2023/06/09 01:03:02;;;;;;;11.30;5.47;;;18.60;76.60;;;;;;5093685;28;20054;-92
2023/06/09 01:05:36;;;;;;;11.05;5.63;;;18.60;76.80;;;;;;5088921;28;20150;-92
2023/06/09 01:08:32;;;;;;;10.65;5.70;;;18.60;77.00;;;;;;5076981;28;20547;-92
2023/06/09 01:11:28;;;;;;;12.48;6.07;;;18.50;77.20;;;;;;5093342;28;20047;-93
2023/06/09 01:14:05;;;;;;;12.88;6.03;;;18.60;77.00;;;;;;5093681;28;20482;-92
2023/06/09 01:16:41;;;;;;;13.57;6.17;;;18.60;77.10;;;;;;5076917;28;20397;-92
2023/06/09 01:19:20;;;;;;;11.38;5.85;;;18.50;77.00;;;;;;5093514;28;20062;-92
2023/06/09 01:21:49;;;;;;;13.43;6.60;;;18.50;77.20;;;;;;5077139;28;20382;-92
2023/06/09 01:24:32;;;;;;;12.50;6.22;;;18.50;77.30;;;;;;5093505;28;20040;-93
2023/06/09 01:27:02;;;;;;;12.68;6.22;;;18.50;77.20;;;;;;5089316;28;20063;-92
2023/06/09 01:29:32;;;;;;;11.90;6.60;;;18.50;77.20;;;;;;5076724;28;20047;-92
2023/06/09 01:32:02;;;;;;;12.68;6.55;;;18.50;77.00;;;;;;5093694;28;20047;-92
2023/06/09 01:34:30;;;;;;;12.63;6.10;;;18.50;77.00;;;;;;5093200;28;20044;-92
2023/06/09 01:36:58;;;;;;;14.68;7.22;;;18.50;77.00;;;;;;5093669;28;20093;-92
2023/06/09 01:39:26;;;;;;;12.43;6.32;;;18.50;77.10;;;;;;5093181;28;20097;-91
2023/06/09 01:41:54;;;;;;;12.33;6.47;;;18.50;77.00;;;;;;5093601;28;20043;-92
2023/06/09 01:44:21;;;;;;;9.75;5.60;;;18.40;77.10;;;;;;5092954;28;20127;-91
2023/06/09 01:46:48;;;;;;;10.93;6.32;;;18.50;77.10;;;;;;5104261;28;20501;-92
2023/06/09 01:49:18;;;;;;;13.00;6.20;;;18.50;77.10;;;;;;5076403;28;20098;-92
2023/06/09 01:51:52;;;;;;;12.55;6.35;;;18.40;77.30;;;;;;5075966;28;20075;-92
2023/06/09 01:54:27;;;;;;;11.03;5.73;;;18.40;77.40;;;;;;5093036;28;20523;-92
2023/06/09 01:57:01;;;;;;;14.10;6.13;;;18.40;77.30;;;;;;5090086;28;20501;-92
2023/06/09 01:59:53;;;;;;;10.65;5.88;;;18.30;77.10;;;;;;5072759;28;20036;-92
2023/06/09 02:02:23;;;;;;;12.80;6.50;;;18.40;77.10;;;;;;5073772;28;20059;-92
2023/06/09 02:04:56;;;;;;;12.05;6.40;;;18.30;77.10;;;;;;5076184;28;20502;-92
2023/06/09 02:07:23;;;;;;;12.03;6.60;;;18.30;77.40;;;;;;5073161;28;20051;-92
2023/06/09 02:09:53;;;;;;;10.80;5.97;;;18.20;77.50;;;;;;5076203;28;20122;-93
2023/06/09 02:12:20;;;;;;;10.95;5.90;;;18.20;77.60;;;;;;5086439;28;20040;-92
2023/06/09 02:14:47;;;;;;;11.30;6.03;;;18.20;77.60;;;;;;5071630;28;20036;-92
2023/06/09 02:17:15;;;;;;;9.65;5.75;;;18.10;77.50;;;;;;5086732;28;20040;-92
2023/06/09 02:19:45;;;;;;;11.20;5.97;;;18.20;77.60;;;;;;5083162;28;20044;-92
2023/06/09 02:22:12;;;;;;;11.00;5.45;;;18.20;77.70;;;;;;5075606;28;20040;-91
2023/06/09 02:24:40;;;;;;;11.43;6.30;;;18.20;77.50;;;;;;5076912;28;20047;-92
2023/06/09 02:27:07;;;;;;;11.00;6.40;;;18.20;77.40;;;;;;5096141;28;20044;-91
2023/06/09 02:29:35;;;;;;;9.32;5.20;;;18.10;77.30;;;;;;5078448;28;20036;-92
2023/06/09 02:32:03;;;;;;;12.00;6.33;;;18.10;77.30;;;;;;5108674;28;20060;-92
2023/06/09 02:34:30;;;;;;;11.23;5.95;;;18.00;77.60;;;;;;5078845;28;20574;-91
2023/06/09 02:36:59;;;;;;;11.77;5.53;;;18.00;77.80;;;;;;5096118;28;20044;-91
2023/06/09 02:39:26;;;;;;;11.18;6.22;;;18.00;78.00;;;;;;5095909;28;20071;-91
2023/06/09 02:41:55;;;;;;;11.38;5.65;;;18.00;77.90;;;;;;5093490;28;20071;-91
2023/06/09 02:44:23;;;;;;;9.80;5.50;;;18.00;78.10;;;;;;5078968;28;20442;-92
2023/06/09 02:46:50;;;;;;;10.93;6.10;;;18.00;78.00;;;;;;5079176;28;20555;-91
2023/06/09 02:49:17;;;;;;;11.52;6.05;;;18.00;77.80;;;;;;5078983;28;20474;-92
2023/06/09 02:51:44;;;;;;;11.35;6.22;;;18.00;78.20;;;;;;5079076;28;20539;-92
2023/06/09 02:54:13;;;;;;;10.55;6.43;;;18.00;78.40;;;;;;5078801;28;20067;-91
2023/06/09 02:56:44;;;;;;;11.73;5.80;;;18.00;78.80;;;;;;5111768;28;20044;-92
2023/06/09 02:59:11;;;;;;;12.88;6.15;;;18.00;79.00;;;;;;5095495;28;20505;-92
2023/06/09 03:01:43;;;;;;;10.15;6.03;;;17.90;79.10;;;;;;5108528;28;20060;-92
2023/06/09 03:04:11;;;;;;;10.18;6.40;;;17.90;79.00;;;;;;5094989;28;20061;-92
2023/06/09 03:06:44;;;;;;;9.27;5.18;;;18.00;78.90;;;;;;5079370;28;20131;-92
2023/06/09 03:09:36;;;;;;;9.13;5.47;;;18.00;78.80;;;;;;5107217;28;20132;-91
2023/06/09 03:12:06;;;;;;;12.18;6.00;;;18.10;78.70;;;;;;5078528;28;20040;-91
2023/06/09 03:14:35;;;;;;;11.15;6.13;;;18.10;78.50;;;;;;5094109;28;20040;-91
2023/06/09 03:17:04;;;;;;;10.80;5.70;;;18.10;78.50;;;;;;5108322;28;20036;-91
2023/06/09 03:19:32;;;;;;;10.15;6.13;;;18.10;78.80;;;;;;5078287;28;20043;-91
2023/06/09 03:22:03;;;;;;;10.90;5.43;;;18.20;78.70;;;;;;5078825;28;20085;-91
2023/06/09 03:24:34;;;;;;;10.70;5.75;;;18.20;78.50;;;;;;5078253;28;20048;-91
2023/06/09 03:27:02;;;;;;;12.18;6.13;;;18.20;78.60;;;;;;5094966;28;20055;-91
2023/06/09 03:29:31;;;;;;;11.00;5.65;;;18.20;78.70;;;;;;5094663;28;20127;-91
2023/06/09 03:31:58;;;;;;;11.93;6.40;;;18.20;78.80;;;;;;5107755;28;20043;-91
2023/06/09 03:34:26;;;;;;;9.17;5.50;;;18.10;79.10;;;;;;5078617;28;20040;-91
2023/06/09 03:36:56;;;;;;;10.45;5.55;;;18.10;78.90;;;;;;5095387;28;20047;-92
2023/06/09 03:39:24;;;;;;;11.45;6.18;;;18.10;79.00;;;;;;5110587;28;20113;-92
2023/06/09 03:41:56;;;;;;;9.18;4.88;;;18.10;79.00;;;;;;5086621;28;20046;-92
2023/06/09 03:44:24;;;;;;;9.23;5.57;;;18.10;79.00;;;;;;5111525;28;20082;-92
2023/06/09 03:46:52;;;;;;;9.70;5.47;;;18.10;78.80;;;;;;5082516;28;20045;-92
2023/06/09 03:49:20;;;;;;;10.63;6.00;;;18.30;78.80;;;;;;5078637;28;20497;-94
2023/06/09 03:51:49;;;;;;;8.80;4.78;;;18.20;78.80;;;;;;5078730;28;20052;-93
2023/06/09 03:54:16;;;;;;;9.05;4.95;;;18.20;78.90;;;;;;5079110;28;20040;-94
2023/06/09 03:56:43;;;;;;;9.85;5.30;;;18.30;78.90;;;;;;5081498;28;20040;-94
2023/06/09 03:59:11;;;;;;;8.83;5.27;;;18.30;79.10;;;;;;5091601;28;20093;-94
2023/06/09 04:01:40;;;;;;;9.93;5.50;;;18.30;79.00;;;;;;5058400;28;20044;-94
2023/06/09 04:04:10;;;;;;;9.93;4.90;;;18.30;78.80;;;;;;5074984;28;20567;-95
2023/06/09 04:06:45;;;;;;;10.05;5.63;;;18.40;78.70;;;;;;5074805;28;20048;-91
2023/06/09 04:09:17;;;;;;;9.15;4.75;;;18.40;78.90;;;;;;5075464;28;20094;-95
2023/06/09 04:11:45;;;;;;;8.77;5.03;;;18.50;78.80;;;;;;5075005;28;20050;-94
2023/06/09 04:14:13;;;;;;;10.80;5.55;;;18.50;78.60;;;;;;5074474;28;20044;-94
2023/06/09 04:16:41;;;;;;;9.27;4.93;;;18.50;78.60;;;;;;5075354;28;20041;-93
2023/06/09 04:19:09;;;;;;;9.65;5.55;;;18.50;78.70;;;;;;5092142;28;20068;-92
2023/06/09 04:21:40;;;;;;;9.30;5.32;;;18.50;78.60;;;;;;5077582;28;20100;-91
2023/06/09 04:24:08;;;;;;;11.17;5.53;;;18.40;78.40;;;;;;5077506;28;20036;-92
2023/06/09 04:26:37;;;;;;;10.93;5.40;;;18.40;78.40;;;;;;5077218;28;20063;-90
2023/06/09 04:29:09;;;;;;;10.00;5.55;;;18.40;78.30;;;;;;5089369;28;20123;-91
2023/06/09 04:31:42;;;;;;;12.57;5.32;;;18.40;78.70;;;;;;5092368;28;20046;-89
2023/06/09 04:34:12;;;;;;;9.65;5.40;;;18.50;78.40;;;;;;5093592;28;20059;-89
2023/06/09 04:36:47;;;;;;;10.73;5.60;;;18.60;78.60;;;;;;5092323;28;20094;-89
2023/06/09 04:39:16;;;;;;;8.63;5.13;;;18.70;78.20;;;;;;5089527;28;20048;-89
2023/06/09 04:41:45;;;;;;;8.60;4.97;;;18.90;77.90;;;;;;5076097;28;20044;-89
2023/06/09 04:44:13;;;;;;;9.00;5.05;;;19.00;77.40;;;;;;5092304;28;20040;-88
2023/06/09 04:46:42;;;;;;;10.02;5.15;;;19.10;76.90;;;;;;5092038;28;20036;-88
2023/06/09 04:49:13;;;;;;;11.13;4.87;;;19.10;76.80;;;;;;5088161;28;20409;-88
2023/06/09 04:51:48;;;;;;;9.23;4.97;;;19.20;76.40;;;;;;5092160;28;20032;-87
2023/06/09 04:54:28;;;;;;;8.95;5.25;;;19.20;75.70;;;;;;5092287;28;20106;-88
2023/06/09 04:57:01;;;;;;;8.85;4.95;;;19.30;75.50;;;;;;5092562;28;20047;-88
2023/06/09 04:59:30;;;;;;;9.32;4.93;;;19.40;75.50;;;;;;5073871;28;20044;-88
2023/06/09 05:01:57;;;;;;;9.70;4.87;;;19.40;75.60;;;;;;5106771;28;20045;-88
2023/06/09 05:04:26;;;;;;;11.27;5.65;;;19.50;75.60;;;;;;5076054;28;20075;-88
2023/06/09 05:06:55;;;;;;;9.18;5.85;;;19.50;75.60;;;;;;5092204;28;20044;-89
2023/06/09 05:09:22;;;;;;;11.23;6.07;;;19.50;75.40;;;;;;5072671;28;20055;-88
2023/06/09 05:11:49;;;;;;;9.40;5.78;;;19.50;75.80;;;;;;5089238;28;20448;-88
2023/06/09 05:14:16;;;;;;;9.47;5.57;;;19.50;75.90;;;;;;5092031;28;20062;-88
2023/06/09 05:16:46;;;;;;;9.35;6.00;;;19.60;75.50;;;;;;5092108;28;20051;-88
2023/06/09 05:19:15;;;;;;;8.32;5.18;;;19.60;75.40;;;;;;5076135;28;20505;-88
2023/06/09 05:21:45;;;;;;;9.55;5.95;;;19.60;75.00;;;;;;5092238;28;20036;-88
2023/06/09 05:24:13;;;;;;;8.32;5.22;;;19.70;75.40;;;;;;5092069;28;20075;-89
2023/06/09 05:26:41;;;;;;;12.13;5.33;;;19.70;74.40;;;;;;5074143;28;20555;-89
2023/06/09 05:29:08;;;;;;;12.57;6.25;;;19.70;74.50;;;;;;5108328;28;20052;-88
2023/06/09 05:31:36;;;;;;;10.38;6.57;;;19.90;74.50;;;;;;5075439;28;20044;-88
2023/06/09 05:34:03;;;;;;;11.80;7.30;;;20.00;75.00;;;;;;5087720;28;20111;-89
2023/06/09 05:36:30;;;;;;;11.95;6.70;;;20.10;75.10;;;;;;5092036;28;20052;-88
2023/06/09 05:39:00;;;;;;;24.00;7.90;;;20.10;74.90;;;;;;5092223;28;20123;-89
2023/06/09 05:41:27;;;;;;;11.32;6.78;;;20.10;75.10;;;;;;5092111;28;20512;-88
2023/06/09 05:43:57;;;;;;;11.63;6.80;;;20.30;74.20;;;;;;5075288;28;20052;-89
2023/06/09 05:46:25;;;;;;;10.35;6.07;;;20.50;74.10;;;;;;5091003;28;20123;-89
2023/06/09 05:48:53;;;;;;;10.73;5.95;;;20.60;73.40;;;;;;5076504;28;20044;-89
2023/06/09 05:51:20;;;;;;;9.37;6.47;;;20.70;73.00;;;;;;5074899;28;20050;-88
2023/06/09 05:53:47;;;;;;;11.98;6.70;;;20.90;73.00;;;;;;5075258;28;20036;-89
2023/06/09 05:56:16;;;;;;;10.80;7.25;;;21.10;72.60;;;;;;5091921;28;20036;-88
2023/06/09 05:58:44;;;;;;;11.30;6.05;;;21.10;72.20;;;;;;5091673;28;20382;-88
2023/06/09 06:01:13;;;;;;;9.93;6.07;;;21.20;72.10;;;;;;5095273;28;20075;-89
2023/06/09 06:03:42;;;;;;;12.43;6.37;;;21.10;72.20;;;;;;5078784;28;20466;-89
2023/06/09 06:06:12;;;;;;;12.52;6.43;;;21.10;71.90;;;;;;5112013;28;20118;-89
2023/06/09 06:08:40;;;;;;;10.40;6.20;;;21.20;71.90;;;;;;5095592;28;20139;-88
2023/06/09 06:11:07;;;;;;;11.52;6.55;;;21.30;72.10;;;;;;5078967;28;20401;-89
2023/06/09 06:13:37;;;;;;;14.40;7.13;;;21.50;71.60;;;;;;5078135;28;20071;-89
2023/06/09 06:16:04;;;;;;;14.60;8.13;;;21.60;71.30;;;;;;5079311;28;20054;-89
2023/06/09 06:18:31;;;;;;;12.88;8.20;;;21.60;71.20;;;;;;5095384;28;20227;-89
2023/06/09 06:20:58;;;;;;;12.43;7.43;;;21.70;71.30;;;;;;5102682;28;20404;-89
2023/06/09 06:23:25;;;;;;;12.52;7.80;;;21.90;70.60;;;;;;5095478;28;20131;-89
2023/06/09 06:25:52;;;;;;;12.82;8.18;;;22.00;69.80;;;;;;5087320;28;20051;-89
2023/06/09 06:28:20;;;;;;;12.77;8.53;;;22.00;69.10;;;;;;5095438;28;20090;-89
2023/06/09 06:30:47;;;;;;;13.57;8.18;;;22.10;69.60;;;;;;5110612;28;20054;-89
2023/06/09 06:33:15;;;;;;;15.95;8.90;;;22.40;69.60;;;;;;5095199;28;20040;-88
2023/06/09 06:35:42;;;;;;;14.73;8.63;;;22.50;69.10;;;;;;5078212;28;20064;-89
2023/06/09 06:38:09;;;;;;;15.65;9.38;;;22.70;68.20;;;;;;5090240;28;20068;-89
2023/06/09 06:40:36;;;;;;;14.57;8.20;;;22.80;67.30;;;;;;5081378;28;20098;-89
2023/06/09 06:43:03;;;;;;;13.27;7.95;;;22.80;68.30;;;;;;5088490;28;20505;-89
2023/06/09 06:45:48;;;;;;;14.52;8.50;;;22.60;67.20;;;;;;5084570;28;20036;-89
2023/06/09 06:48:15;;;;;;;11.75;7.20;;;22.40;68.20;;;;;;5106497;28;20094;-89
2023/06/09 06:50:42;;;;;;;12.07;7.50;;;22.50;68.60;;;;;;5095014;28;20048;-89
2023/06/09 06:53:09;;;;;;;12.63;7.50;;;22.70;68.00;;;;;;5095074;28;20044;-89
2023/06/09 06:55:42;;;;;;;11.90;7.20;;;22.90;65.80;;;;;;5079479;28;20387;-89
2023/06/09 06:58:09;;;;;;;12.57;7.50;;;22.90;65.20;;;;;;5077924;28;20032;-89
2023/06/09 07:00:36;;;;;;;13.15;8.40;;;22.80;65.40;;;;;;5078048;28;20048;-89
2023/06/09 07:03:04;;;;;;;12.07;7.95;;;22.80;65.70;;;;;;5110103;28;20048;-89
2023/06/09 07:05:31;;;;;;;13.67;8.23;;;22.60;66.80;;;;;;5077982;28;20040;-88
2023/06/09 07:07:58;;;;;;;15.50;8.70;;;22.50;66.70;;;;;;5108543;28;20134;-89
2023/06/09 07:10:25;;;;;;;13.18;8.05;;;22.30;67.40;;;;;;5086364;28;20111;-89
2023/06/09 07:12:52;;;;;;;12.45;8.00;;;22.20;67.70;;;;;;5094408;28;20050;-89
2023/06/09 07:15:19;;;;;;;12.57;7.80;;;22.30;67.10;;;;;;5071724;28;20056;-88
2023/06/09 07:17:46;;;;;;;11.83;7.20;;;22.40;67.20;;;;;;5077989;28;20036;-89
2023/06/09 07:20:14;;;;;;;12.13;7.32;;;22.60;66.80;;;;;;5094299;28;20129;-89
2023/06/09 07:22:41;;;;;;;12.25;7.60;;;22.80;65.80;;;;;;5078087;28;20054;-89
2023/06/09 07:25:09;;;;;;;13.77;8.35;;;23.00;67.30;;;;;;5094087;28;20093;-89
2023/06/09 07:27:36;;;;;;;13.93;8.73;;;23.20;66.40;;;;;;5078088;28;20056;-89
2023/06/09 07:30:04;;;;;;;12.80;8.63;;;23.50;65.40;;;;;;5077668;28;20570;-89
2023/06/09 07:32:31;;;;;;;13.27;8.88;;;23.50;65.20;;;;;;5127262;27;20066;-89
2023/06/09 07:35:00;;;;;;;13.00;8.85;;;23.40;65.80;;;;;;5077571;28;20036;-89
2023/06/09 07:37:36;;;;;;;15.23;9.35;;;23.30;65.50;;;;;;5093059;28;20040;-89
2023/06/09 07:40:04;;;;;;;14.07;9.15;;;23.10;64.90;;;;;;5104399;28;20409;-89
2023/06/09 07:42:47;;;;;;;13.80;8.60;;;23.00;65.30;;;;;;5094059;28;20039;-89
2023/06/09 07:45:14;;;;;;;14.00;8.52;;;23.00;67.00;;;;;;5094165;28;20501;-89
2023/06/09 07:47:41;;;;;;;13.45;8.95;;;22.70;68.00;;;;;;5077308;28;20048;-89
2023/06/09 07:50:09;;;;;;;15.90;9.25;;;22.60;67.80;;;;;;5071950;28;20410;-89
2023/06/09 07:52:38;;;;;;;12.90;9.05;;;22.60;67.90;;;;;;5090657;28;20469;-89
2023/06/09 07:55:06;;;;;;;13.17;9.23;;;22.60;67.90;;;;;;5077302;28;20043;-89
2023/06/09 07:57:40;;;;;;;14.57;9.10;;;22.60;67.70;;;;;;5093690;28;20051;-89
2023/06/09 08:00:07;;;;;;;14.80;9.20;;;22.60;68.20;;;;;;5070829;28;20531;-89
2023/06/09 08:02:41;;;;;;;13.20;8.52;;;22.60;68.50;;;;;;5092049;28;20052;-89
2023/06/09 08:05:11;;;;;;;12.68;7.88;;;22.60;67.90;;;;;;5076779;28;20040;-89
2023/06/09 08:07:39;;;;;;;12.00;8.50;;;22.60;67.50;;;;;;5093646;28;20097;-89
2023/06/09 08:10:07;;;;;;;13.10;8.57;;;22.60;68.00;;;;;;5093523;28;20131;-89
2023/06/09 08:12:36;;;;;;;13.10;8.00;;;22.90;67.80;;;;;;5094473;28;20463;-89
2023/06/09 08:15:04;;;;;;;12.45;8.07;;;22.80;67.80;;;;;;5079276;28;20149;-89
2023/06/09 08:17:31;;;;;;;14.05;8.63;;;22.90;66.50;;;;;;5093470;28;20040;-89
2023/06/09 08:19:58;;;;;;;12.20;8.07;;;23.00;66.60;;;;;;5093848;28;20044;-89
2023/06/09 08:22:25;;;;;;;17.45;8.65;;;23.00;66.90;;;;;;5075924;28;20062;-89
2023/06/09 08:24:52;;;;;;;14.52;8.80;;;23.00;66.20;;;;;;5076142;28;20405;-89
2023/06/09 08:27:19;;;;;;;13.50;8.80;;;23.10;67.10;;;;;;5089861;28;20081;-89
2023/06/09 08:29:46;;;;;;;21.90;8.68;;;23.10;67.60;;;;;;5092991;28;20134;-89
2023/06/09 08:32:13;;;;;;;13.33;8.17;;;23.10;67.90;;;;;;5079540;28;20123;-89
2023/06/09 08:34:40;;;;;;;13.93;7.75;;;23.00;67.00;;;;;;5075888;28;20043;-89
2023/06/09 08:37:10;;;;;;;14.73;7.88;;;23.00;65.70;;;;;;5092908;28;20089;-89
2023/06/09 08:39:38;;;;;;;12.82;7.93;;;23.00;66.00;;;;;;5073852;28;20509;-89
2023/06/09 08:42:15;;;;;;;12.82;7.88;;;23.00;65.90;;;;;;5092735;28;20525;-89
2023/06/09 08:44:45;;;;;;;12.83;7.60;;;23.00;66.20;;;;;;5073766;28;20401;-89
2023/06/09 08:47:15;;;;;;;13.90;7.57;;;23.00;65.90;;;;;;5090750;28;20071;-89
2023/06/09 08:49:42;;;;;;;14.20;7.95;;;23.00;66.20;;;;;;5076493;28;20135;-88
2023/06/09 08:52:09;;;;;;;15.27;8.43;;;23.00;66.60;;;;;;5072245;28;20036;-89
2023/06/09 08:54:37;;;;;;;12.18;7.90;;;23.00;66.50;;;;;;5076176;28;20040;-89
2023/06/09 08:57:05;;;;;;;14.77;8.80;;;23.10;66.30;;;;;;5075884;28;20093;-89
2023/06/09 08:59:34;;;;;;;17.17;9.52;;;23.10;67.50;;;;;;5075837;28;20118;-89
2023/06/09 09:02:08;;;;;;;14.23;8.80;;;23.10;67.50;;;;;;5075943;28;20413;-89
2023/06/09 09:04:38;;;;;;;15.32;9.73;;;23.10;67.50;;;;;;5087726;28;20086;-89
2023/06/09 09:07:11;;;;;;;15.32;10.10;;;23.10;70.20;;;;;;5071484;28;20036;-88
2023/06/09 09:09:39;;;;;;;19.13;10.30;;;23.00;70.40;;;;;;5072958;28;20564;-89
2023/06/09 09:12:13;;;;;;;15.35;10.07;;;22.90;72.20;;;;;;5075414;28;20032;-89
2023/06/09 09:14:44;;;;;;;15.82;10.63;;;22.60;72.00;;;;;;5089927;28;20508;-89
2023/06/09 09:17:12;;;;;;;19.65;11.15;;;22.60;72.80;;;;;;5075611;28;20044;-89
2023/06/09 09:19:45;;;;;;;17.08;11.68;;;22.60;73.00;;;;;;5085513;28;20113;-89
2023/06/09 09:22:12;;;;;;;19.17;12.17;;;22.50;73.60;;;;;;5088300;28;20044;-89
2023/06/09 09:24:49;;;;;;;18.58;12.23;;;22.40;74.10;;;;;;5089611;28;20051;-89
2023/06/09 09:27:26;;;;;;;23.40;12.60;;;22.30;75.30;;;;;;5091050;28;20047;-89
2023/06/09 09:29:53;;;;;;;26.02;12.15;;;22.30;74.90;;;;;;5092410;28;20139;-89
2023/06/09 09:32:25;;;;;;;31.25;11.75;;;22.40;74.90;;;;;;5108183;28;20040;-89
2023/06/09 09:34:56;;;;;;;26.00;11.17;;;22.40;75.00;;;;;;5109870;28;20436;-89
2023/06/09 09:37:24;;;;;;;27.48;11.70;;;22.30;75.00;;;;;;5079503;28;20032;-89
2023/06/09 09:39:53;;;;;;;28.55;10.88;;;22.20;75.90;;;;;;5090001;28;20099;-88
2023/06/09 09:42:21;;;;;;;21.85;10.05;;;22.20;75.10;;;;;;5074421;28;20048;-89
2023/06/09 09:44:51;;;;;;;16.40;10.02;;;22.10;75.20;;;;;;5079176;28;20163;-89
2023/06/09 09:47:19;;;;;;;20.07;10.50;;;22.00;75.70;;;;;;5096314;28;20048;-89
2023/06/09 09:49:58;;;;;;;16.00;9.85;;;22.00;75.70;;;;;;5094480;28;20146;-89
2023/06/09 09:52:27;;;;;;;22.38;11.48;;;21.90;76.20;;;;;;5078767;28;20044;-89
2023/06/09 09:55:08;;;;;;;28.00;13.55;;;21.70;77.10;;;;;;5079311;28;20578;-89
2023/06/09 09:57:37;;;;;;;36.83;15.25;;;21.50;77.30;;;;;;5078936;28;20132;-88
2023/06/09 10:00:12;;;;;;;23.03;12.63;;;21.10;77.90;;;;;;5087955;28;20051;-88
2023/06/09 10:02:44;;;;;;;32.13;15.27;;;20.60;78.40;;;;;;5093820;28;20044;-88
2023/06/09 10:05:14;;;;;;;24.17;12.80;;;20.40;80.20;;;;;;5094957;28;20438;-88
2023/06/09 10:07:45;;;;;;;20.25;9.90;;;20.40;80.20;;;;;;5093631;28;20040;-88
2023/06/09 10:10:13;;;;;;;15.02;5.07;;;20.20;78.80;;;;;;5078785;28;20048;-88
2023/06/09 10:12:41;;;;;;;9.83;2.70;;;19.80;76.80;;;;;;5078832;28;20032;-88
2023/06/09 10:15:09;;;;;;;8.52;1.77;;;19.10;75.80;;;;;;5078650;28;20170;-89
2023/06/09 10:17:37;;;;;;;5.82;0.90;;;18.50;75.30;;;;;;5078618;28;20032;-89
2023/06/09 10:20:08;;;;;;;7.75;1.60;;;18.10;73.10;;;;;;5095578;28;20552;-88
2023/06/09 10:22:36;;;;;;;6.95;1.70;;;18.00;77.00;;;;;;5077271;28;20517;-88
2023/06/09 10:25:06;;;;;;;7.40;1.73;;;18.10;78.30;;;;;;5081366;28;20110;-88
2023/06/09 10:27:34;;;;;;;8.60;1.58;;;18.20;78.80;;;;;;5096210;28;20098;-88
2023/06/09 10:30:03;;;;;;;5.80;1.30;;;18.20;78.50;;;;;;5078309;28;20048;-88
2023/06/09 10:32:33;;;;;;;8.80;1.20;;;18.40;79.60;;;;;;5078433;28;20047;-88
2023/06/09 10:35:02;;;;;;;6.57;1.40;;;18.50;78.00;;;;;;5094021;28;20416;-88
2023/06/09 10:37:31;;;;;;;7.63;1.73;;;18.50;78.70;;;;;;5095401;28;20126;-88
2023/06/09 10:40:29;;;;;;;6.53;1.45;;;18.60;79.80;;;;;;5079739;28;20060;-88
2023/06/09 10:43:05;;;;;;;5.80;1.50;;;18.60;79.50;;;;;;5077958;28;20080;-88
2023/06/09 10:45:49;;;;;;;4.68;1.15;;;18.60;79.20;;;;;;5094243;28;20105;-88
2023/06/09 10:48:43;;;;;;;5.20;1.33;;;18.70;78.80;;;;;;5094573;28;20540;-88
2023/06/09 10:51:28;;;;;;;4.93;1.20;;;18.70;77.20;;;;;;5094534;28;20138;-88
2023/06/09 10:54:10;;;;;;;5.78;1.40;;;18.60;78.60;;;;;;5094531;28;20555;-88
2023/06/09 10:56:40;;;;;;;5.60;1.20;;;18.70;78.80;;;;;;5103581;28;20131;-88
2023/06/09 10:59:26;;;;;;;6.13;0.90;;;18.60;78.80;;;;;;5074052;28;20048;-88
2023/06/09 11:02:05;;;;;;;5.88;0.93;;;18.70;78.80;;;;;;5072898;28;20050;-88
2023/06/09 11:04:41;;;;;;;5.23;1.33;;;18.90;78.30;;;;;;5094212;28;20394;-88
2023/06/09 11:07:09;;;;;;;5.05;1.35;;;19.10;79.30;;;;;;5091280;28;20050;-88
2023/06/09 11:09:36;;;;;;;3.80;0.90;;;19.10;80.40;;;;;;5093342;28;20550;-88
2023/06/09 11:12:05;;;;;;;5.07;1.25;;;19.40;78.90;;;;;;5077387;28;20048;-89
2023/06/09 11:14:45;;;;;;;4.40;1.23;;;19.80;78.10;;;;;;5093972;28;20040;-88
2023/06/09 11:17:25;;;;;;;3.93;1.30;;;20.30;79.10;;;;;;5094230;28;20497;-88
2023/06/09 11:20:10;;;;;;;4.85;1.60;;;20.80;76.70;;;;;;5077688;28;20047;-88
2023/06/09 11:22:41;;;;;;;11.40;3.17;;;21.20;73.20;;;;;;5094170;28;20048;-89
2023/06/09 11:25:30;;;;;;;15.30;4.03;;;21.50;74.00;;;;;;5094222;28;20054;-88
2023/06/09 11:27:57;;;;;;;14.38;5.82;;;21.80;74.00;;;;;;5092775;28;20052;-89
2023/06/09 11:30:29;;;;;;;13.77;6.37;;;21.90;72.80;;;;;;5077249;28;20052;-89
2023/06/09 11:33:02;;;;;;;13.70;4.85;;;21.80;74.00;;;;;;5090286;28;20032;-89
2023/06/09 11:35:29;;;;;;;16.42;4.75;;;22.00;72.80;;;;;;5073472;28;20097;-89
2023/06/09 11:37:57;;;;;;;17.42;7.20;;;22.20;73.40;;;;;;5094110;28;20044;-89
2023/06/09 11:40:30;;;;;;;17.23;6.95;;;22.60;73.60;;;;;;5092882;28;20087;-89
2023/06/09 11:42:58;;;;;;;15.27;6.13;;;22.80;71.70;;;;;;5077045;28;20051;-89
2023/06/09 11:45:26;;;;;;;10.43;3.80;;;23.00;73.20;;;;;;5077528;28;20044;-89
2023/06/09 11:47:56;;;;;;;10.35;3.15;;;23.20;69.00;;;;;;5076213;28;20067;-89
2023/06/09 11:50:25;;;;;;;8.63;2.70;;;23.40;67.00;;;;;;5094104;28;20052;-89
2023/06/09 11:53:06;;;;;;;9.18;2.83;;;23.50;65.50;;;;;;5076803;28;20035;-89
2023/06/09 11:55:33;;;;;;;6.37;2.70;;;23.60;66.70;;;;;;5087928;28;20462;-89
2023/06/09 11:58:01;;;;;;;5.80;2.00;;;23.80;70.60;;;;;;5092780;28;20040;-88
2023/06/09 12:00:30;;;;;;;4.38;1.60;;;24.10;67.70;;;;;;5093340;28;20046;-89
2023/06/09 12:02:59;;;;;;;3.20;1.30;;;24.10;64.10;;;;;;5076643;28;20052;-89
2023/06/09 12:05:27;;;;;;;3.28;1.40;;;24.30;62.80;;;;;;5093441;28;20048;-89
2023/06/09 12:07:55;;;;;;;4.47;1.43;;;24.40;63.30;;;;;;5110217;28;20079;-88
2023/06/09 12:10:26;;;;;;;2.75;1.20;;;24.50;62.30;;;;;;5093581;28;20052;-89
2023/06/09 12:12:58;;;;;;;4.40;1.40;;;24.50;61.20;;;;;;5092676;28;20050;-89
2023/06/09 12:15:26;;;;;;;4.38;1.67;;;24.60;61.50;;;;;;5089295;28;20040;-89
2023/06/09 12:17:57;;;;;;;2.13;1.05;;;24.70;62.30;;;;;;5073117;28;20075;-89
2023/06/09 12:20:28;;;;;;;5.63;1.57;;;24.60;61.70;;;;;;5121138;27;20450;-89
2023/06/09 12:22:57;;;;;;;4.10;1.95;;;24.60;62.70;;;;;;5093002;28;20524;-89
2023/06/09 12:25:30;;;;;;;5.28;2.20;;;24.30;63.50;;;;;;5106905;27;20036;-89
2023/06/09 12:28:11;;;;;;;5.75;2.15;;;24.20;64.00;;;;;;5076006;28;20052;-89
2023/06/09 12:30:42;;;;;;;4.72;1.98;;;24.30;63.30;;;;;;5091878;28;20040;-89
2023/06/09 12:33:12;;;;;;;5.13;2.20;;;24.20;62.60;;;;;;5092741;28;20054;-89
2023/06/09 12:35:48;;;;;;;4.38;1.80;;;24.10;62.30;;;;;;5093266;28;20490;-89
2023/06/09 12:38:17;;;;;;;5.60;2.30;;;24.00;62.70;;;;;;5075926;28;20070;-89
2023/06/09 12:40:49;;;;;;;5.50;2.33;;;23.80;63.50;;;;;;5087314;28;20044;-89
2023/06/09 12:43:26;;;;;;;5.72;2.75;;;23.90;63.90;;;;;;5086595;28;20493;-89
2023/06/09 12:45:58;;;;;;;5.80;2.73;;;23.90;65.60;;;;;;5093076;28;20074;-89
2023/06/09 12:48:25;;;;;;;5.22;2.50;;;24.10;65.10;;;;;;5092306;28;20044;-89
2023/06/09 12:50:56;;;;;;;6.57;2.53;;;24.20;64.80;;;;;;5079063;28;20037;-89
2023/06/09 12:53:23;;;;;;;5.28;2.35;;;24.40;65.20;;;;;;5100312;28;20048;-89
2023/06/09 12:55:50;;;;;;;5.72;2.88;;;24.60;63.80;;;;;;5080885;28;20402;-89